Time;durP1;ratioP1;P1;durP2;ratioP2;P2;SDS_P1;SDS_P2;PMS_P1;PMS_P2;Temp;Humidity;BMP_temperature;BMP_pressure;BME280_temperature;BME280_humidity;BME280_pressure;Samples;Min_cycle;Max_cycle;Signal;HPM_P1;HPM_P2
2022/05/01 00:02:07;;;;;;;12.87;9.33;;;14.60;99.90;;;;;;5034630;28;20442;-87
2022/05/01 00:04:33;;;;;;;14.47;9.93;;;14.60;99.90;;;;;;5053000;28;20174;-88
2022/05/01 00:06:59;;;;;;;15.33;10.10;;;14.50;99.90;;;;;;5053224;28;20506;-93
2022/05/01 00:09:25;;;;;;;12.17;8.90;;;14.50;99.90;;;;;;5041874;28;20476;-87
2022/05/01 00:11:51;;;;;;;15.23;10.50;;;14.50;99.90;;;;;;5032980;28;20563;-92
2022/05/01 00:14:17;;;;;;;14.60;10.10;;;14.50;99.90;;;;;;5033574;28;20557;-88
2022/05/01 00:16:43;;;;;;;14.70;9.37;;;14.50;99.90;;;;;;5033747;28;20258;-91
2022/05/01 00:19:09;;;;;;;13.40;9.07;;;14.50;99.90;;;;;;5033177;28;20402;-87
2022/05/01 00:21:36;;;;;;;12.80;8.77;;;14.40;99.90;;;;;;5033525;28;20483;-93
2022/05/01 00:24:02;;;;;;;12.07;7.93;;;14.40;99.90;;;;;;5033846;28;20265;-92
2022/05/01 00:26:28;;;;;;;13.17;8.47;;;14.40;99.90;;;;;;5039750;28;20464;-91
2022/05/01 00:28:55;;;;;;;13.13;8.97;;;14.30;99.90;;;;;;5012419;28;20440;-88
2022/05/01 00:31:23;;;;;;;12.97;8.10;;;14.30;99.90;;;;;;5012198;28;20427;-88
2022/05/01 00:36:33;;;;;;;12.20;9.00;;;14.30;99.90;;;;;;5015686;28;20961;-87
2022/05/01 00:39:04;;;;;;;14.03;8.93;;;14.20;99.90;;;;;;5016145;28;20404;-88
2022/05/01 00:41:31;;;;;;;13.50;9.17;;;14.20;99.90;;;;;;5014510;28;20409;-88
2022/05/01 00:44:08;;;;;;;14.57;8.33;;;14.20;99.90;;;;;;5030961;28;20440;-88
2022/05/01 00:46:36;;;;;;;16.90;10.03;;;14.20;99.90;;;;;;5014756;28;20951;-88
2022/05/01 00:49:05;;;;;;;11.90;8.97;;;14.20;99.90;;;;;;5015131;28;20939;-87
2022/05/01 00:51:41;;;;;;;16.40;10.10;;;14.10;99.90;;;;;;5016032;28;20469;-92
2022/05/01 00:54:07;;;;;;;14.80;9.50;;;14.10;99.90;;;;;;5017038;28;20468;-92
2022/05/01 00:56:36;;;;;;;14.63;9.13;;;14.10;99.90;;;;;;5020341;28;20479;-92
2022/05/01 00:59:03;;;;;;;13.00;9.40;;;14.10;99.90;;;;;;5016771;28;20401;-92
2022/05/01 01:01:28;;;;;;;12.20;8.73;;;14.00;99.90;;;;;;5013181;28;20937;-88
2022/05/01 01:03:54;;;;;;;14.30;9.40;;;14.00;99.90;;;;;;5013348;28;20423;-91
2022/05/01 01:06:21;;;;;;;13.10;9.30;;;14.00;99.90;;;;;;5013624;28;20324;-88
2022/05/01 01:08:47;;;;;;;12.70;8.37;;;14.00;99.90;;;;;;5015163;28;20412;-88
2022/05/01 01:11:13;;;;;;;11.23;7.60;;;13.90;99.90;;;;;;5013099;28;20479;-88
2022/05/01 01:13:39;;;;;;;12.90;8.40;;;13.90;99.90;;;;;;5013395;28;20219;-91
2022/05/01 01:16:11;;;;;;;13.10;9.00;;;13.90;99.90;;;;;;5015434;28;20393;-92
2022/05/01 01:18:39;;;;;;;15.80;10.07;;;13.90;99.90;;;;;;5015386;28;20940;-89
2022/05/01 01:21:10;;;;;;;13.07;9.00;;;13.80;99.90;;;;;;5014280;28;20417;-88
2022/05/01 01:23:40;;;;;;;12.20;8.60;;;13.80;99.90;;;;;;5015070;28;20421;-88
2022/05/01 01:26:07;;;;;;;10.63;8.50;;;13.80;99.90;;;;;;5020281;28;20434;-92
2022/05/01 01:28:35;;;;;;;13.23;10.57;;;13.70;99.90;;;;;;5054468;28;20472;-91
2022/05/01 01:33:51;;;;;;;11.53;8.50;;;13.70;99.90;;;;;;5054795;28;20461;-88
2022/05/01 01:36:21;;;;;;;15.03;8.93;;;13.70;99.90;;;;;;5037268;28;20419;-93
2022/05/01 01:38:47;;;;;;;16.20;9.80;;;13.70;99.90;;;;;;5036430;28;20400;-88
2022/05/01 01:41:14;;;;;;;12.37;9.10;;;13.70;99.90;;;;;;5036508;28;20772;-90
2022/05/01 01:43:42;;;;;;;13.37;9.90;;;13.70;99.90;;;;;;5054349;28;20229;-92
2022/05/01 01:46:07;;;;;;;13.70;9.47;;;13.70;99.90;;;;;;5036730;28;20411;-87
2022/05/01 01:48:33;;;;;;;15.57;8.97;;;13.60;99.90;;;;;;5054999;28;20939;-88
2022/05/01 01:51:00;;;;;;;12.53;8.67;;;13.60;99.90;;;;;;5037015;28;20174;-91
2022/05/01 01:53:27;;;;;;;12.30;9.10;;;13.50;99.90;;;;;;5056610;28;20201;-87
2022/05/01 01:55:53;;;;;;;13.67;9.67;;;13.50;99.90;;;;;;5035277;28;20814;-87
2022/05/01 01:58:19;;;;;;;11.37;8.63;;;13.50;99.90;;;;;;5036109;28;20490;-88
2022/05/01 02:00:45;;;;;;;15.13;9.43;;;13.50;99.90;;;;;;5035260;28;20422;-88
2022/05/01 02:03:11;;;;;;;12.40;8.90;;;13.50;99.90;;;;;;5034893;28;20442;-92
2022/05/01 02:05:37;;;;;;;14.83;9.80;;;13.40;99.90;;;;;;5035417;28;20174;-90
2022/05/01 02:08:07;;;;;;;11.33;8.07;;;13.40;99.90;;;;;;5053384;28;20268;-88
2022/05/01 02:10:32;;;;;;;15.60;9.30;;;13.40;99.90;;;;;;5035646;28;20506;-92
2022/05/01 02:13:00;;;;;;;11.43;8.40;;;13.30;99.90;;;;;;5036087;28;20864;-92
2022/05/01 02:15:30;;;;;;;13.57;9.37;;;13.30;99.90;;;;;;5035991;28;20177;-91
2022/05/01 02:17:58;;;;;;;14.17;8.80;;;13.30;99.90;;;;;;5035756;28;20463;-92
2022/05/01 02:20:25;;;;;;;11.50;8.93;;;13.20;99.90;;;;;;5036894;28;20414;-88
2022/05/01 02:22:53;;;;;;;13.33;9.27;;;13.20;99.90;;;;;;5056055;28;20850;-92
2022/05/01 02:25:22;;;;;;;12.93;9.97;;;13.20;99.90;;;;;;5036881;28;20440;-92
2022/05/01 02:27:47;;;;;;;11.17;7.93;;;13.10;99.90;;;;;;5017075;28;20457;-92
2022/05/01 02:30:14;;;;;;;10.50;7.33;;;13.10;99.90;;;;;;5014261;28;20412;-91
2022/05/01 02:32:41;;;;;;;14.80;10.30;;;13.10;99.90;;;;;;5015376;28;20305;-91
2022/05/01 02:35:09;;;;;;;21.63;13.70;;;13.10;99.90;;;;;;5018781;28;20190;-92
2022/05/01 02:37:35;;;;;;;27.10;15.53;;;13.10;99.90;;;;;;5012230;28;20222;-87
2022/05/01 02:40:02;;;;;;;167.30;78.60;;;13.00;99.90;;;;;;5012645;28;20797;-91
2022/05/01 02:42:28;;;;;;;83.43;40.40;;;13.10;99.90;;;;;;5013919;28;20523;-88
2022/05/01 02:44:55;;;;;;;19.47;13.90;;;13.00;99.90;;;;;;5013457;28;20199;-91
2022/05/01 02:47:21;;;;;;;17.77;11.55;;;13.00;99.90;;;;;;5013026;28;20200;-87
2022/05/01 02:49:47;;;;;;;24.03;10.90;;;13.00;99.90;;;;;;5014180;28;20222;-86
2022/05/01 02:52:14;;;;;;;22.53;12.97;;;13.00;99.90;;;;;;5012478;28;20444;-92
2022/05/01 02:54:39;;;;;;;24.45;13.02;;;12.90;99.90;;;;;;5012673;28;20179;-90
2022/05/01 02:57:06;;;;;;;20.47;12.40;;;12.90;99.90;;;;;;5015812;28;20210;-92
2022/05/01 02:59:32;;;;;;;20.77;10.47;;;12.90;99.90;;;;;;5013449;28;20265;-92
2022/05/01 03:01:58;;;;;;;18.33;11.47;;;12.80;99.90;;;;;;5013901;28;20482;-93
2022/05/01 03:04:24;;;;;;;19.93;11.47;;;12.70;99.90;;;;;;5013313;28;20413;-87
2022/05/01 03:06:50;;;;;;;16.47;11.30;;;12.70;99.90;;;;;;5016996;28;20531;-88
2022/05/01 03:09:15;;;;;;;14.27;9.40;;;12.70;99.90;;;;;;5013940;28;20187;-87
2022/05/01 03:11:41;;;;;;;14.30;9.27;;;12.70;99.90;;;;;;5029243;28;20241;-89
2022/05/01 03:14:09;;;;;;;10.50;7.63;;;12.70;99.90;;;;;;5047577;28;20217;-88
2022/05/01 03:16:36;;;;;;;11.63;8.60;;;12.60;99.90;;;;;;5032226;28;20182;-91
2022/05/01 03:24:30;;;;;;;12.05;8.70;;;12.60;99.90;;;;;;5033517;28;20178;-88
2022/05/01 03:26:56;;;;;;;13.80;8.90;;;12.50;99.90;;;;;;5041365;28;20205;-92
2022/05/01 03:29:22;;;;;;;16.53;9.27;;;12.50;99.90;;;;;;5053199;28;20658;-90
2022/05/01 03:31:50;;;;;;;15.53;10.07;;;12.50;99.90;;;;;;5037088;28;20677;-91
2022/05/01 03:34:18;;;;;;;17.23;10.57;;;12.50;99.90;;;;;;5035827;28;20206;-92
2022/05/01 03:36:47;;;;;;;15.05;9.20;;;12.50;99.90;;;;;;5057635;28;20204;-88
2022/05/01 03:39:15;;;;;;;12.85;8.02;;;12.40;99.90;;;;;;5039531;28;20548;-90
2022/05/01 03:41:41;;;;;;;13.57;8.95;;;12.40;99.90;;;;;;5033941;28;20242;-90
2022/05/01 03:44:09;;;;;;;12.73;8.52;;;12.40;99.90;;;;;;5034197;28;20782;-88
2022/05/01 03:46:38;;;;;;;11.88;7.65;;;12.40;99.90;;;;;;5034366;28;20235;-92
2022/05/01 03:49:09;;;;;;;12.30;8.60;;;12.40;99.90;;;;;;5052375;28;20173;-92
2022/05/01 03:51:35;;;;;;;19.85;12.18;;;12.40;99.90;;;;;;5034537;28;20218;-92
2022/05/01 03:54:02;;;;;;;26.73;17.97;;;12.40;99.90;;;;;;5053233;28;20206;-89
2022/05/01 03:56:31;;;;;;;23.87;13.40;;;12.40;99.90;;;;;;5034700;28;20435;-87
2022/05/01 03:59:04;;;;;;;15.88;8.70;;;12.40;99.90;;;;;;5034717;28;20468;-92
2022/05/01 04:01:30;;;;;;;21.52;11.57;;;12.50;99.90;;;;;;5035093;28;20193;-86
2022/05/01 04:03:56;;;;;;;17.85;10.15;;;12.50;99.90;;;;;;5037947;28;20174;-88
2022/05/01 04:06:22;;;;;;;19.58;11.95;;;12.50;99.90;;;;;;5035889;28;20264;-86
2022/05/01 04:08:48;;;;;;;17.48;11.48;;;12.50;99.90;;;;;;5034237;28;20665;-87
2022/05/01 04:11:14;;;;;;;18.33;11.53;;;12.50;99.90;;;;;;5051388;28;20226;-87
2022/05/01 04:13:40;;;;;;;14.43;10.30;;;12.50;99.90;;;;;;5051185;28;20225;-88
2022/05/01 04:16:06;;;;;;;21.90;11.80;;;12.50;99.90;;;;;;5033520;28;20654;-92
2022/05/01 04:18:32;;;;;;;17.17;10.70;;;12.50;99.90;;;;;;5051253;28;20423;-92
2022/05/01 04:21:01;;;;;;;19.20;11.07;;;12.50;99.90;;;;;;5033987;28;20539;-88
2022/05/01 04:23:27;;;;;;;16.55;10.73;;;12.50;99.90;;;;;;5034065;28;20432;-87
2022/05/01 04:25:53;;;;;;;21.30;12.37;;;12.50;99.90;;;;;;5049041;28;20162;-88
2022/05/01 04:28:19;;;;;;;14.87;10.63;;;12.60;99.90;;;;;;5013577;28;20203;-93
2022/05/01 04:30:46;;;;;;;13.63;9.07;;;12.60;99.90;;;;;;5012845;28;20748;-92
2022/05/01 04:33:14;;;;;;;13.85;9.40;;;12.60;99.90;;;;;;5012716;28;20219;-89
2022/05/01 04:35:45;;;;;;;16.15;9.68;;;12.70;99.90;;;;;;5022105;28;20210;-92
2022/05/01 04:38:17;;;;;;;11.02;8.52;;;12.60;99.90;;;;;;5026977;28;20195;-92
2022/05/01 04:40:47;;;;;;;10.88;8.07;;;12.70;99.90;;;;;;5010322;28;20183;-92
2022/05/01 04:43:14;;;;;;;15.02;8.57;;;12.70;99.90;;;;;;5011204;28;20207;-93
2022/05/01 04:45:43;;;;;;;15.40;8.95;;;12.80;99.90;;;;;;5009934;28;20191;-88
2022/05/01 04:48:10;;;;;;;12.55;8.27;;;12.80;99.90;;;;;;5012093;28;20733;-88
2022/05/01 04:50:36;;;;;;;11.38;7.93;;;12.80;99.90;;;;;;5010565;28;20561;-91
2022/05/01 04:53:03;;;;;;;13.57;7.53;;;12.90;99.90;;;;;;5010732;28;20215;-88
2022/05/01 04:55:30;;;;;;;14.67;8.97;;;12.90;99.90;;;;;;5011466;28;20228;-92
2022/05/01 04:57:57;;;;;;;15.85;9.68;;;13.00;99.90;;;;;;5011279;28;20492;-92
2022/05/01 05:00:22;;;;;;;14.40;9.40;;;13.00;99.90;;;;;;5018814;28;20218;-93
2022/05/01 05:02:50;;;;;;;12.20;9.17;;;13.10;99.90;;;;;;5010915;28;20464;-88
2022/05/01 05:05:17;;;;;;;15.10;9.93;;;13.10;99.90;;;;;;5009849;28;20237;-93
2022/05/01 05:07:43;;;;;;;15.23;8.90;;;13.20;99.90;;;;;;5011608;28;20440;-92
2022/05/01 05:10:10;;;;;;;19.50;10.20;;;13.20;99.90;;;;;;5011013;28;20822;-88
2022/05/01 05:12:37;;;;;;;13.73;9.47;;;13.30;99.90;;;;;;5010878;28;20680;-88
2022/05/01 05:15:06;;;;;;;17.53;10.13;;;13.40;99.90;;;;;;5011431;28;20405;-92
2022/05/01 05:17:33;;;;;;;21.60;9.87;;;13.50;99.90;;;;;;5011656;28;20968;-88
2022/05/01 05:19:59;;;;;;;13.70;9.40;;;13.50;99.90;;;;;;5014024;28;20421;-92
2022/05/01 05:22:25;;;;;;;14.63;9.80;;;13.60;99.90;;;;;;5022609;28;20527;-88
2022/05/01 05:24:51;;;;;;;13.23;8.90;;;13.60;99.90;;;;;;5023122;28;20478;-92
2022/05/01 05:27:26;;;;;;;13.80;8.77;;;13.70;99.90;;;;;;5029135;28;20321;-92
2022/05/01 05:29:56;;;;;;;17.53;10.50;;;13.70;99.90;;;;;;5035962;28;20220;-92
2022/05/01 05:32:23;;;;;;;16.27;10.00;;;13.70;99.90;;;;;;5036069;28;20476;-92
2022/05/01 05:34:49;;;;;;;13.63;9.60;;;13.80;99.90;;;;;;5036979;28;20415;-93
2022/05/01 05:37:17;;;;;;;14.47;10.03;;;13.80;99.90;;;;;;5037534;28;20451;-88
2022/05/01 05:39:43;;;;;;;19.93;12.20;;;13.90;99.90;;;;;;5037159;28;20411;-92
2022/05/01 05:42:09;;;;;;;20.97;12.03;;;13.90;99.90;;;;;;5054925;28;20866;-89
2022/05/01 05:44:35;;;;;;;16.20;11.30;;;13.90;99.90;;;;;;5056050;28;20428;-88
2022/05/01 05:47:01;;;;;;;21.23;13.10;;;14.00;99.90;;;;;;5056485;28;20451;-93
2022/05/01 05:49:27;;;;;;;16.00;10.53;;;14.10;99.90;;;;;;5039993;28;20174;-91
2022/05/01 05:51:52;;;;;;;17.87;11.33;;;14.10;99.90;;;;;;5056770;28;20930;-88
2022/05/01 05:54:19;;;;;;;20.40;11.07;;;14.10;99.90;;;;;;5056485;28;20216;-87
2022/05/01 05:56:44;;;;;;;16.00;10.77;;;14.20;99.90;;;;;;5038145;28;20301;-92
2022/05/01 05:59:11;;;;;;;16.53;10.83;;;14.20;99.90;;;;;;5035438;28;20447;-87
2022/05/01 06:01:37;;;;;;;17.97;12.30;;;14.40;99.90;;;;;;5035742;28;20212;-91
2022/05/01 06:04:03;;;;;;;17.17;12.10;;;14.40;99.90;;;;;;5035880;28;20407;-92
2022/05/01 06:06:29;;;;;;;17.73;11.03;;;14.50;99.90;;;;;;5036402;28;20969;-92
2022/05/01 06:08:55;;;;;;;14.07;9.60;;;14.60;99.90;;;;;;5054683;28;20399;-88
2022/05/01 06:11:21;;;;;;;15.20;9.70;;;14.70;99.90;;;;;;5036896;28;20519;-89
2022/05/01 06:13:47;;;;;;;14.30;9.47;;;14.80;99.90;;;;;;5036328;28;20221;-92
2022/05/01 06:16:12;;;;;;;15.77;9.93;;;14.90;99.90;;;;;;5054154;28;20185;-93
2022/05/01 06:18:38;;;;;;;14.33;8.23;;;15.00;99.90;;;;;;5054675;28;20217;-88
2022/05/01 06:21:04;;;;;;;10.80;8.60;;;15.10;99.90;;;;;;5054746;28;20249;-88
2022/05/01 06:23:29;;;;;;;15.57;9.60;;;15.20;99.90;;;;;;5043952;28;20194;-89
2022/05/01 06:25:56;;;;;;;11.40;8.40;;;15.30;99.90;;;;;;5060328;28;20178;-88
2022/05/01 06:28:22;;;;;;;14.60;9.47;;;15.50;99.90;;;;;;5012377;28;20214;-91
2022/05/01 06:30:50;;;;;;;12.70;9.80;;;15.60;99.90;;;;;;5012269;28;20405;-91
2022/05/01 06:33:18;;;;;;;13.10;9.70;;;15.70;99.90;;;;;;5013942;28;20557;-87
2022/05/01 06:35:53;;;;;;;14.23;9.50;;;15.90;99.90;;;;;;5013712;28;20408;-92
2022/05/01 06:38:19;;;;;;;14.00;8.10;;;16.00;99.90;;;;;;5014161;28;20768;-92
2022/05/01 06:40:46;;;;;;;12.30;8.70;;;16.10;99.90;;;;;;5012206;28;20415;-90
2022/05/01 06:43:13;;;;;;;10.90;7.43;;;16.20;99.90;;;;;;5012363;28;20203;-88
2022/05/01 06:45:39;;;;;;;10.90;8.07;;;16.30;99.90;;;;;;5012743;28;20440;-92
2022/05/01 06:48:07;;;;;;;11.53;8.30;;;16.30;99.90;;;;;;5012534;28;20452;-88
2022/05/01 06:50:33;;;;;;;15.50;9.50;;;16.40;99.90;;;;;;5013800;28;20811;-88
2022/05/01 06:52:58;;;;;;;12.30;8.37;;;16.50;99.90;;;;;;5013978;28;20484;-88
2022/05/01 06:55:25;;;;;;;13.50;9.23;;;16.60;99.90;;;;;;5012562;28;20172;-88
2022/05/01 06:57:55;;;;;;;16.47;10.40;;;16.70;99.90;;;;;;5016436;28;20287;-88
2022/05/01 07:00:21;;;;;;;10.50;8.30;;;16.70;99.90;;;;;;5031148;28;20409;-89
2022/05/01 07:02:49;;;;;;;11.90;8.00;;;16.80;99.90;;;;;;5011985;28;20423;-92
2022/05/01 07:05:15;;;;;;;13.13;9.47;;;16.90;99.90;;;;;;5011486;28;20424;-88
2022/05/01 07:07:41;;;;;;;9.93;8.00;;;17.00;99.90;;;;;;5011931;28;20448;-89
2022/05/01 07:10:08;;;;;;;11.80;7.60;;;17.10;99.90;;;;;;5011465;28;20497;-88
2022/05/01 07:12:34;;;;;;;12.10;8.00;;;17.20;99.90;;;;;;5011589;28;20482;-88
2022/05/01 07:15:00;;;;;;;11.37;7.83;;;17.30;99.90;;;;;;5028427;28;20417;-88
2022/05/01 07:17:27;;;;;;;12.00;7.30;;;17.40;99.90;;;;;;5012200;28;20583;-92
2022/05/01 07:19:52;;;;;;;9.97;8.57;;;17.50;99.90;;;;;;5027535;28;20417;-91
2022/05/01 07:22:18;;;;;;;10.83;7.97;;;17.60;99.90;;;;;;5012996;28;20441;-87
2022/05/01 07:24:44;;;;;;;11.07;7.80;;;17.70;99.90;;;;;;5014643;28;20526;-92
2022/05/01 07:27:10;;;;;;;10.27;7.23;;;17.80;99.90;;;;;;5037750;28;20262;-92
2022/05/01 07:29:36;;;;;;;10.10;7.57;;;17.90;99.90;;;;;;5035708;28;20233;-87
2022/05/01 07:32:02;;;;;;;9.80;6.63;;;18.00;99.90;;;;;;5033799;28;20451;-88
2022/05/01 07:34:28;;;;;;;11.77;7.27;;;18.10;99.90;;;;;;5033633;28;20307;-87
2022/05/01 07:36:53;;;;;;;11.00;7.33;;;18.20;99.90;;;;;;5034180;28;20460;-92
2022/05/01 07:39:19;;;;;;;9.30;6.50;;;18.30;99.90;;;;;;5051995;28;20166;-91
2022/05/01 07:41:45;;;;;;;7.97;6.40;;;18.40;99.90;;;;;;5051540;28;20236;-93
2022/05/01 07:44:13;;;;;;;8.27;6.20;;;18.40;99.90;;;;;;5052659;28;20186;-92
2022/05/01 07:46:43;;;;;;;7.13;6.40;;;18.50;99.90;;;;;;5033026;28;20190;-93
2022/05/01 07:49:09;;;;;;;11.80;7.70;;;18.60;99.90;;;;;;5033879;28;20423;-88
2022/05/01 07:51:35;;;;;;;8.23;6.10;;;18.70;99.90;;;;;;5051901;28;20407;-93
2022/05/01 07:54:04;;;;;;;7.20;6.00;;;18.80;99.90;;;;;;5052079;28;20551;-89
2022/05/01 07:56:31;;;;;;;8.10;6.67;;;18.90;99.90;;;;;;5034908;28;20432;-92
2022/05/01 07:58:57;;;;;;;9.57;6.83;;;19.00;99.90;;;;;;5035242;28;20428;-88
2022/05/01 08:01:23;;;;;;;8.63;6.40;;;19.00;99.90;;;;;;5040073;28;20421;-93
2022/05/01 08:06:34;;;;;;;7.20;6.10;;;19.20;99.90;;;;;;5052088;28;20913;-87
2022/05/01 08:08:59;;;;;;;6.80;5.50;;;19.30;99.90;;;;;;5034543;28;20410;-92
2022/05/01 08:11:25;;;;;;;7.33;5.53;;;19.40;99.90;;;;;;5033961;28;20473;-88
2022/05/01 08:13:51;;;;;;;10.13;6.13;;;19.50;99.90;;;;;;5034186;28;20216;-87
2022/05/01 08:16:17;;;;;;;7.30;5.63;;;19.60;99.90;;;;;;5034727;28;20192;-87
2022/05/01 08:21:31;;;;;;;5.00;4.33;;;19.80;99.90;;;;;;5053081;28;20449;-91
2022/05/01 08:23:57;;;;;;;8.27;4.70;;;19.90;99.90;;;;;;5036912;28;20437;-86
2022/05/01 08:26:23;;;;;;;6.80;4.70;;;20.00;99.90;;;;;;5032167;28;20862;-87
2022/05/01 08:28:54;;;;;;;4.87;3.90;;;20.10;99.90;;;;;;5010412;28;20420;-88
2022/05/01 08:31:21;;;;;;;6.17;4.30;;;20.20;99.90;;;;;;5010591;28;20431;-92
2022/05/01 08:33:47;;;;;;;4.40;4.00;;;20.30;99.90;;;;;;5010151;28;20837;-93
2022/05/01 08:36:13;;;;;;;6.20;4.80;;;20.40;99.90;;;;;;5009821;28;20415;-92
2022/05/01 08:38:39;;;;;;;6.97;5.30;;;20.40;99.90;;;;;;5010656;28;20428;-93
2022/05/01 08:41:07;;;;;;;4.80;4.30;;;20.50;99.90;;;;;;5012004;28;20483;-93
2022/05/01 08:43:34;;;;;;;4.07;3.47;;;20.60;99.90;;;;;;5027250;28;20952;-92
2022/05/01 08:46:17;;;;;;;4.00;3.43;;;20.70;99.90;;;;;;5011058;28;20412;-92
2022/05/01 08:48:52;;;;;;;4.37;3.87;;;20.80;99.90;;;;;;5011818;28;20425;-88
2022/05/01 08:51:18;;;;;;;4.47;3.47;;;20.90;99.90;;;;;;5011113;28;20420;-93
2022/05/01 08:53:47;;;;;;;5.20;4.20;;;20.90;99.90;;;;;;5013309;28;20506;-92
2022/05/01 08:56:13;;;;;;;5.50;4.27;;;21.00;99.90;;;;;;5014878;28;20416;-88
2022/05/01 08:58:43;;;;;;;3.40;3.10;;;21.10;99.90;;;;;;5015505;28;20914;-94
2022/05/01 09:01:09;;;;;;;4.43;3.27;;;21.20;99.90;;;;;;5015288;28;20416;-89
2022/05/01 09:03:36;;;;;;;4.67;3.60;;;21.20;99.90;;;;;;5018222;28;20432;-94
2022/05/01 09:06:02;;;;;;;2.77;2.57;;;21.30;99.90;;;;;;5017429;28;20413;-88
2022/05/01 09:08:29;;;;;;;4.37;3.30;;;21.30;99.90;;;;;;5018072;28;20891;-89
2022/05/01 09:10:55;;;;;;;3.50;3.20;;;21.40;99.90;;;;;;5013293;28;20814;-93
2022/05/01 09:13:27;;;;;;;3.77;2.97;;;21.40;99.90;;;;;;5014994;28;20472;-92
2022/05/01 09:16:09;;;;;;;3.57;2.90;;;21.40;99.90;;;;;;5013392;28;20431;-91
2022/05/01 09:18:45;;;;;;;4.03;3.63;;;21.50;99.90;;;;;;5014853;28;20436;-92
2022/05/01 09:21:11;;;;;;;5.13;3.07;;;21.50;99.90;;;;;;5013641;28;20504;-88
2022/05/01 09:23:44;;;;;;;3.40;3.10;;;21.60;99.90;;;;;;5013239;28;20436;-93
2022/05/01 09:26:12;;;;;;;2.90;2.47;;;21.60;99.90;;;;;;5021446;28;20498;-87
2022/05/01 09:28:51;;;;;;;3.50;2.53;;;21.70;99.90;;;;;;5037754;28;20982;-92
2022/05/01 09:31:38;;;;;;;2.43;2.23;;;21.70;99.90;;;;;;5036077;28;20490;-93
2022/05/01 09:34:21;;;;;;;2.60;2.30;;;21.80;99.90;;;;;;5036201;28;20502;-88
2022/05/01 09:36:47;;;;;;;2.13;1.93;;;21.80;99.90;;;;;;5054867;28;20443;-91
2022/05/01 09:39:24;;;;;;;3.27;2.97;;;21.90;99.90;;;;;;5038486;28;20415;-91
2022/05/01 09:41:51;;;;;;;2.77;2.50;;;21.90;99.90;;;;;;5055532;28;20438;-92
2022/05/01 09:44:19;;;;;;;2.53;2.33;;;21.90;99.90;;;;;;5045847;28;20415;-91
2022/05/01 09:46:49;;;;;;;2.33;2.13;;;21.90;99.50;;;;;;5036052;28;20515;-87
2022/05/01 09:49:19;;;;;;;2.80;2.60;;;21.80;98.90;;;;;;5030729;28;20432;-92
2022/05/01 09:51:56;;;;;;;3.13;2.17;;;21.80;99.50;;;;;;5015517;28;20454;-92
2022/05/01 09:54:23;;;;;;;2.77;2.50;;;21.80;99.10;;;;;;5033100;28;20471;-92
2022/05/01 09:56:57;;;;;;;2.73;2.20;;;21.80;99.20;;;;;;5016240;28;20501;-87
2022/05/01 09:59:24;;;;;;;3.80;2.13;;;21.80;99.90;;;;;;5033977;28;20411;-87
2022/05/01 10:02:03;;;;;;;3.20;2.37;;;21.90;98.00;;;;;;5035563;28;20970;-87
2022/05/01 10:04:33;;;;;;;2.37;2.17;;;22.00;98.00;;;;;;5016751;28;20408;-92
2022/05/01 10:07:00;;;;;;;3.87;2.00;;;22.00;96.70;;;;;;5019058;28;20444;-88
2022/05/01 10:09:31;;;;;;;2.70;2.50;;;22.00;95.80;;;;;;5018269;28;20499;-91
2022/05/01 10:11:58;;;;;;;2.57;2.20;;;22.00;95.30;;;;;;5038216;28;20486;-88
2022/05/01 10:14:26;;;;;;;2.53;2.30;;;22.00;96.40;;;;;;5020092;28;20467;-87
2022/05/01 10:16:52;;;;;;;2.63;2.40;;;22.00;95.90;;;;;;5020989;28;20495;-93
2022/05/01 10:19:19;;;;;;;2.03;1.83;;;22.00;96.00;;;;;;5022173;28;20896;-87
2022/05/01 10:21:47;;;;;;;3.73;2.10;;;22.00;96.20;;;;;;5015700;28;20598;-92
2022/05/01 10:24:14;;;;;;;2.40;2.20;;;22.00;95.80;;;;;;5015586;28;20801;-92
2022/05/01 10:26:52;;;;;;;2.33;2.07;;;22.10;96.10;;;;;;5009277;28;20444;-92
2022/05/01 10:29:21;;;;;;;3.00;2.50;;;22.20;96.20;;;;;;4996091;28;20423;-88
2022/05/01 10:32:26;;;;;;;2.10;1.87;;;22.30;95.80;;;;;;4996642;28;20444;-92
2022/05/01 10:35:12;;;;;;;2.07;1.90;;;22.30;94.70;;;;;;4995197;28;20421;-92
2022/05/01 10:37:46;;;;;;;2.30;2.10;;;22.40;94.10;;;;;;5013258;28;20452;-87
2022/05/01 10:40:13;;;;;;;2.70;2.30;;;22.40;94.80;;;;;;4996467;28;20569;-88
2022/05/01 10:42:48;;;;;;;2.17;1.87;;;22.50;95.20;;;;;;4997350;28;20536;-88
2022/05/01 10:45:23;;;;;;;2.17;1.57;;;22.60;95.40;;;;;;4996576;28;20428;-88
2022/05/01 10:47:53;;;;;;;2.10;1.90;;;22.70;94.80;;;;;;5014486;28;20804;-92
2022/05/01 10:50:27;;;;;;;2.57;2.37;;;22.70;94.80;;;;;;5013953;28;20404;-93
2022/05/01 10:53:04;;;;;;;2.60;2.30;;;22.80;95.10;;;;;;4996182;28;20530;-93
2022/05/01 10:56:14;;;;;;;2.70;2.23;;;22.90;95.20;;;;;;4996854;28;20419;-88
2022/05/01 10:58:40;;;;;;;2.60;2.10;;;23.00;94.30;;;;;;4996635;28;20448;-88
2022/05/01 11:01:06;;;;;;;2.80;2.30;;;23.10;95.00;;;;;;5014374;28;20445;-92
2022/05/01 11:03:32;;;;;;;2.47;2.00;;;23.20;92.50;;;;;;5014460;28;20428;-88
2022/05/01 11:06:04;;;;;;;3.20;2.20;;;23.20;92.20;;;;;;5016106;28;20437;-87
2022/05/01 11:08:38;;;;;;;2.50;2.30;;;23.20;91.50;;;;;;4995159;28;20440;-88
2022/05/01 11:11:11;;;;;;;2.53;2.33;;;23.00;90.60;;;;;;5043080;28;20997;-91
2022/05/01 11:13:41;;;;;;;2.90;2.07;;;22.90;91.50;;;;;;5095009;28;20613;-92
2022/05/01 11:16:08;;;;;;;2.23;2.13;;;22.80;91.10;;;;;;5076778;28;20428;-93
2022/05/01 11:18:51;;;;;;;2.20;2.00;;;22.80;92.00;;;;;;5095498;28;20441;-92
2022/05/01 11:21:20;;;;;;;2.70;2.10;;;22.80;92.70;;;;;;5077681;28;20417;-88
2022/05/01 11:23:56;;;;;;;1.97;1.87;;;22.90;92.90;;;;;;5094229;28;20434;-88
2022/05/01 11:26:22;;;;;;;2.77;2.17;;;23.00;91.30;;;;;;5083102;28;20426;-88
2022/05/01 11:28:51;;;;;;;1.97;1.77;;;23.10;91.70;;;;;;5115298;28;20408;-88
2022/05/01 11:31:35;;;;;;;2.10;1.90;;;23.20;91.70;;;;;;5097022;28;20172;-93
2022/05/01 11:34:16;;;;;;;1.80;1.70;;;23.30;90.10;;;;;;5116028;28;20511;-93
2022/05/01 11:37:03;;;;;;;2.30;2.10;;;23.30;89.90;;;;;;5098712;28;20466;-88
2022/05/01 11:39:50;;;;;;;2.10;1.83;;;23.30;88.50;;;;;;5097715;28;20428;-88
2022/05/01 11:42:25;;;;;;;3.93;2.63;;;23.40;89.70;;;;;;5116945;28;20449;-92
2022/05/01 11:44:55;;;;;;;1.80;1.70;;;23.40;90.10;;;;;;5116744;28;20753;-87
2022/05/01 11:47:23;;;;;;;2.47;1.90;;;23.40;90.20;;;;;;5122462;28;20425;-91
2022/05/01 11:49:50;;;;;;;3.30;2.20;;;23.40;89.00;;;;;;5108158;28;20443;-88
2022/05/01 11:52:17;;;;;;;2.30;2.10;;;23.40;88.20;;;;;;5098935;28;20787;-88
2022/05/01 11:54:50;;;;;;;2.67;1.97;;;23.40;88.80;;;;;;5129206;28;20466;-91
2022/05/01 12:03:07;;;;;;;2.03;1.83;;;23.40;89.30;;;;;;5115463;28;20443;-87
2022/05/01 12:05:45;;;;;;;2.17;2.07;;;23.50;88.00;;;;;;5096280;28;20400;-88
2022/05/01 12:08:12;;;;;;;2.03;1.93;;;23.50;88.80;;;;;;5096471;28;21014;-88
2022/05/01 12:10:43;;;;;;;1.97;1.80;;;23.50;89.20;;;;;;5080025;28;20454;-87
2022/05/01 12:13:34;;;;;;;2.30;2.10;;;23.50;89.20;;;;;;5032389;28;20477;-93
2022/05/01 12:16:00;;;;;;;2.10;1.90;;;23.40;87.00;;;;;;5031631;28;20431;-87
2022/05/01 12:18:26;;;;;;;2.30;1.93;;;23.30;87.20;;;;;;5014036;28;20452;-93
2022/05/01 12:20:52;;;;;;;3.20;2.50;;;23.30;88.50;;;;;;5014134;28;20261;-87
2022/05/01 12:23:19;;;;;;;1.80;1.70;;;23.30;89.80;;;;;;5015985;28;20719;-92
2022/05/01 12:25:49;;;;;;;2.40;1.73;;;23.20;90.50;;;;;;5015012;28;20175;-91
2022/05/01 12:28:17;;;;;;;2.00;1.80;;;23.20;90.10;;;;;;5036570;28;21045;-87
2022/05/01 12:30:43;;;;;;;2.03;1.90;;;23.20;89.10;;;;;;5056963;28;20472;-87
2022/05/01 12:33:21;;;;;;;2.60;2.10;;;23.10;89.00;;;;;;5046797;28;20965;-93
2022/05/01 12:36:00;;;;;;;5.13;1.90;;;23.10;90.20;;;;;;5037382;28;20411;-87
2022/05/01 12:38:30;;;;;;;2.97;1.90;;;23.10;88.90;;;;;;5037377;28;20549;-88
2022/05/01 12:44:00;;;;;;;2.10;1.77;;;23.00;88.80;;;;;;5054923;28;20402;-92
2022/05/01 12:46:28;;;;;;;2.20;1.83;;;23.00;89.50;;;;;;5037155;28;20923;-93
2022/05/01 12:48:56;;;;;;;1.70;1.60;;;23.00;88.80;;;;;;5054567;28;20490;-87
2022/05/01 12:51:23;;;;;;;2.30;1.93;;;23.00;87.40;;;;;;5036677;28;20914;-87
2022/05/01 12:53:49;;;;;;;1.97;1.80;;;23.10;86.70;;;;;;5054715;28;20881;-93
2022/05/01 12:56:22;;;;;;;1.90;1.80;;;23.10;86.70;;;;;;5037385;28;20471;-93
2022/05/01 12:58:49;;;;;;;4.20;1.67;;;23.10;87.30;;;;;;5054807;28;20542;-88
2022/05/01 13:01:29;;;;;;;2.33;2.17;;;23.10;86.30;;;;;;5036947;28;20534;-88
2022/05/01 13:03:55;;;;;;;2.03;1.60;;;23.10;85.40;;;;;;5036469;28;20513;-88
2022/05/01 13:06:23;;;;;;;1.80;1.70;;;23.10;84.80;;;;;;5055328;28;20427;-88
2022/05/01 13:08:51;;;;;;;1.70;1.60;;;23.00;84.70;;;;;;5038922;28;20455;-88
2022/05/01 13:11:17;;;;;;;2.47;2.27;;;22.90;86.60;;;;;;5042283;28;20474;-88